Time;durP1;ratioP1;P1;durP2;ratioP2;P2;SDS_P1;SDS_P2;PMS_P1;PMS_P2;Temp;Humidity;BMP_temperature;BMP_pressure;BME280_temperature;BME280_humidity;BME280_pressure;Samples;Min_cycle;Max_cycle;Signal;HPM_P1;HPM_P2
2022/09/19 00:01:16;;;;;;;;;4.00;4.00;;;;;16.60;49.51;101701.81;4904899;29;45427;-66
2022/09/19 00:03:45;;;;;;;;;3.00;3.00;;;;;16.58;49.65;101701.88;4905096;29;45402;-66
2022/09/19 00:06:13;;;;;;;;;2.25;2.25;;;;;16.58;49.65;101703.72;4899082;28;46853;-66
2022/09/19 00:08:40;;;;;;;;;3.25;3.25;;;;;16.48;49.57;101693.31;4886018;29;45514;-66
2022/09/19 00:11:07;;;;;;;;;3.25;3.25;;;;;16.50;49.65;101701.34;4882244;29;45673;-66
2022/09/19 00:13:35;;;;;;;;;4.50;2.00;;;;;16.44;49.95;101689.00;4887069;29;45665;-66
2022/09/19 00:16:00;;;;;;;;;3.25;2.00;;;;;16.49;49.82;101702.28;4884760;29;45316;-66
2022/09/19 00:18:26;;;;;;;;;3.00;3.00;;;;;16.41;49.81;101693.66;4884897;29;45300;-66
2022/09/19 00:20:51;;;;;;;;;2.00;2.00;;;;;16.44;50.19;101701.59;4884504;29;45466;-66
2022/09/19 00:26:06;;;;;;;;;3.25;3.25;;;;;16.46;50.26;101707.81;4870307;29;45310;-66
2022/09/19 00:28:32;;;;;;;;;2.25;2.25;;;;;16.39;49.91;101693.72;4884720;29;45462;-66
2022/09/19 00:31:00;;;;;;;;;3.00;3.00;;;;;16.42;50.15;101700.78;4885719;29;45864;-66
2022/09/19 00:33:27;;;;;;;;;2.00;2.00;;;;;16.40;50.26;101706.22;4868701;29;45489;-66
2022/09/19 00:35:54;;;;;;;;;2.00;2.00;;;;;16.35;50.24;101704.66;4884542;29;45424;-66
2022/09/19 00:38:30;;;;;;;;;2.00;2.00;;;;;16.30;50.43;101697.66;4884777;29;45284;-66
2022/09/19 00:40:57;;;;;;;;;2.00;2.00;;;;;16.27;50.09;101700.47;4885636;29;45695;-66
2022/09/19 00:43:25;;;;;;;;;3.25;3.00;;;;;16.29;50.54;101717.47;4885554;29;45578;-66
2022/09/19 00:45:51;;;;;;;;;2.00;2.00;;;;;16.33;50.79;101715.50;4885564;29;45277;-66
2022/09/19 00:48:21;;;;;;;;;2.00;2.00;;;;;16.34;50.67;101711.88;4885730;29;46308;-66
2022/09/19 00:50:52;;;;;;;;;2.75;2.00;;;;;16.32;51.00;101716.44;4894541;29;45731;-66
2022/09/19 00:53:22;;;;;;;;;0.00;0.00;;;;;16.28;50.93;101704.91;4883969;29;45413;-66
2022/09/19 00:55:52;;;;;;;;;2.00;2.00;;;;;16.31;50.91;101712.00;4885317;29;45518;-66
2022/09/19 00:58:29;;;;;;;;;3.00;3.00;;;;;16.33;50.84;101720.91;4885058;29;46299;-66
2022/09/19 01:00:57;;;;;;;;;3.25;3.00;;;;;16.33;51.05;101711.94;4868472;29;45613;-66
2022/09/19 01:03:25;;;;;;;;;3.00;3.00;;;;;16.33;50.97;101709.25;4885313;29;45797;-66
2022/09/19 01:06:02;;;;;;;;;2.00;2.00;;;;;16.33;51.04;101717.34;4893176;29;45487;-66
2022/09/19 01:08:43;;;;;;;;;2.00;2.00;;;;;16.33;50.96;101714.66;4885129;29;45407;-66
2022/09/19 01:11:41;;;;;;;;;3.00;3.00;;;;;16.32;51.06;101715.56;4881760;29;45520;-66
2022/09/19 01:14:13;;;;;;;;;3.50;2.00;;;;;16.30;51.12;101711.16;4883704;29;45328;-66
2022/09/19 01:16:48;;;;;;;;;2.00;2.00;;;;;16.28;50.96;101714.81;4884327;29;45594;-66
2022/09/19 01:19:23;;;;;;;;;2.00;2.00;;;;;16.29;51.29;101711.19;4884316;29;45517;-66
2022/09/19 01:22:01;;;;;;;;;2.00;2.00;;;;;16.25;51.38;101712.25;4886291;29;45398;-66
2022/09/19 01:24:40;;;;;;;;;3.00;3.00;;;;;16.29;51.22;101716.59;4884853;29;45333;-66
2022/09/19 01:27:17;;;;;;;;;3.00;1.50;;;;;16.27;51.37;101713.06;4882218;29;45808;-66
2022/09/19 01:29:55;;;;;;;;;2.00;2.00;;;;;16.24;51.44;101708.69;4883642;29;47171;-66
2022/09/19 01:32:28;;;;;;;;;3.00;3.00;;;;;16.18;51.50;101697.28;4884641;29;45662;-66
2022/09/19 01:35:02;;;;;;;;;1.75;1.75;;;;;16.24;51.60;101710.50;4884892;29;45467;-66
2022/09/19 01:37:34;;;;;;;;;2.25;2.25;;;;;16.21;51.55;101713.31;4872215;29;45650;-66
2022/09/19 01:40:04;;;;;;;;;4.50;3.75;;;;;16.23;51.54;101716.81;4884494;29;47228;-66
2022/09/19 01:42:29;;;;;;;;;2.00;2.00;;;;;16.21;51.65;101716.88;4884652;29;45669;-66
2022/09/19 01:44:55;;;;;;;;;2.75;2.75;;;;;16.20;51.77;101714.25;4884737;29;45477;-66
2022/09/19 01:47:50;;;;;;;;;2.00;2.00;;;;;16.20;51.89;101717.81;4884646;29;45327;-66
2022/09/19 01:50:39;;;;;;;;;2.00;2.00;;;;;16.18;51.84;101706.22;4894622;29;46357;-66
2022/09/19 01:53:33;;;;;;;;;3.00;3.00;;;;;16.19;51.95;101718.78;4884278;29;45326;-66
2022/09/19 01:56:10;;;;;;;;;2.25;2.00;;;;;16.16;52.02;101716.19;4884519;29;45429;-66
2022/09/19 01:58:50;;;;;;;;;2.25;2.25;;;;;16.14;52.10;101728.84;4883389;29;45888;-66
2022/09/19 02:01:37;;;;;;;;;3.00;3.00;;;;;16.14;52.01;101720.78;4884199;29;46594;-66
2022/09/19 02:04:25;;;;;;;;;3.25;3.00;;;;;16.13;52.07;101718.16;4884219;29;45341;-66
2022/09/19 02:07:09;;;;;;;;;3.00;3.00;;;;;16.08;52.21;101721.88;4892956;28;45495;-66
2022/09/19 02:09:49;;;;;;;;;1.75;1.75;;;;;16.09;52.10;101726.34;4867245;29;45305;-66
2022/09/19 02:12:18;;;;;;;;;2.75;2.25;;;;;16.05;52.23;101718.44;4874568;29;45627;-66
2022/09/19 02:14:51;;;;;;;;;3.00;2.00;;;;;16.07;52.24;101730.03;4884621;29;45499;-66
2022/09/19 02:17:24;;;;;;;;;1.50;1.50;;;;;16.04;52.36;101728.34;4884073;29;45321;-66
2022/09/19 02:19:58;;;;;;;;;2.00;2.00;;;;;16.04;52.33;101727.47;4884158;29;45797;-66
2022/09/19 02:22:36;;;;;;;;;1.50;1.50;;;;;16.00;52.24;101731.22;4881749;29;45503;-66
2022/09/19 02:25:11;;;;;;;;;3.00;2.75;;;;;16.05;52.38;101739.97;4884136;29;45545;-66
2022/09/19 02:27:48;;;;;;;;;2.25;2.00;;;;;16.04;52.39;101744.50;4883050;29;45353;-66
2022/09/19 02:30:15;;;;;;;;;2.00;2.00;;;;;16.01;52.44;101739.22;4883786;29;45286;-66
2022/09/19 02:32:47;;;;;;;;;2.00;2.00;;;;;16.01;52.55;101739.22;4883777;29;46937;-66
2022/09/19 02:35:15;;;;;;;;;2.00;1.75;;;;;16.01;52.61;101739.22;4883835;29;45572;-66
2022/09/19 02:38:09;;;;;;;;;2.00;2.00;;;;;15.90;52.74;101723.50;4882401;29;45645;-66
2022/09/19 02:40:47;;;;;;;;;2.00;2.00;;;;;15.94;52.75;101732.34;4883694;29;45893;-66
2022/09/19 02:43:33;;;;;;;;;3.75;1.75;;;;;15.94;52.82;101735.03;4883657;29;46103;-66
2022/09/19 02:46:10;;;;;;;;;2.00;2.00;;;;;15.90;52.75;101725.31;4882920;29;45413;-66
2022/09/19 02:48:41;;;;;;;;;3.00;2.00;;;;;15.95;52.81;101733.22;4886582;29;45348;-66
2022/09/19 02:51:36;;;;;;;;;4.00;3.00;;;;;15.93;52.95;101739.53;4873063;29;45550;-66
2022/09/19 02:54:10;;;;;;;;;3.00;3.00;;;;;15.93;52.88;101742.22;4876048;29;45503;-66
2022/09/19 02:56:40;;;;;;;;;3.00;3.00;;;;;15.92;52.97;101743.16;4882595;29;45363;-66
2022/09/19 02:59:20;;;;;;;;;2.00;2.00;;;;;15.93;53.08;101739.53;4882474;29;45357;-66
2022/09/19 03:01:49;;;;;;;;;3.00;3.00;;;;;15.84;52.91;101728.25;4883062;29;45732;-66
2022/09/19 03:04:19;;;;;;;;;4.00;3.00;;;;;15.91;53.30;101740.53;4883361;29;46391;-66
2022/09/19 03:07:12;;;;;;;;;3.25;1.00;;;;;15.89;53.15;101745.97;4892329;29;45423;-66
2022/09/19 03:09:41;;;;;;;;;2.25;2.25;;;;;15.87;53.12;101737.09;4883282;29;45391;-66
2022/09/19 03:12:27;;;;;;;;;2.00;2.00;;;;;15.87;53.42;101745.16;4872629;29;45550;-66
2022/09/19 03:14:58;;;;;;;;;2.00;2.00;;;;;15.85;53.44;101730.84;4871653;29;45617;-66
2022/09/19 03:17:33;;;;;;;;;2.00;2.00;;;;;15.85;53.54;101738.94;4884146;29;45579;-66
2022/09/19 03:19:59;;;;;;;;;2.75;2.75;;;;;15.84;53.60;101737.19;4887145;29;45499;-66
2022/09/19 03:22:25;;;;;;;;;1.25;1.25;;;;;15.83;53.64;101745.34;4888060;29;45543;-66
2022/09/19 03:24:51;;;;;;;;;2.00;2.00;;;;;15.82;53.40;101744.47;4886640;29;46451;-66
2022/09/19 03:27:16;;;;;;;;;1.50;1.50;;;;;15.81;53.48;101741.84;4884913;29;45731;-66
2022/09/19 03:29:41;;;;;;;;;2.00;2.00;;;;;15.75;53.52;101737.50;4882719;29;45784;-66
2022/09/19 03:32:07;;;;;;;;;1.75;1.75;;;;;15.80;53.50;101748.13;4885266;29;45764;-66
2022/09/19 03:34:33;;;;;;;;;4.00;2.50;;;;;15.78;53.82;101737.44;4885548;29;45394;-66
2022/09/19 03:36:59;;;;;;;;;2.25;2.25;;;;;15.77;53.78;101741.06;4884909;29;45455;-66
2022/09/19 03:39:25;;;;;;;;;2.00;2.00;;;;;15.76;53.48;101742.00;4885673;29;45403;-66
2022/09/19 03:41:50;;;;;;;;;2.25;2.25;;;;;15.72;53.70;101738.53;4885408;29;45314;-66
2022/09/19 03:44:17;;;;;;;;;1.25;1.25;;;;;15.71;53.76;101736.75;4885795;29;45843;-66
2022/09/19 03:46:43;;;;;;;;;1.25;1.25;;;;;15.75;53.97;101748.28;4884573;29;45652;-66
2022/09/19 03:49:10;;;;;;;;;1.00;1.00;;;;;15.74;54.00;101754.63;4892396;29;45459;-66
2022/09/19 03:51:37;;;;;;;;;2.00;2.00;;;;;15.71;53.78;101752.03;4888413;29;45437;-66
2022/09/19 03:54:02;;;;;;;;;3.00;2.00;;;;;15.66;53.97;101749.50;4886177;29;46015;-66
2022/09/19 03:56:28;;;;;;;;;1.75;1.75;;;;;15.70;54.22;101761.03;4885171;29;45493;-66
2022/09/19 03:58:53;;;;;;;;;2.25;2.25;;;;;15.67;54.13;101755.75;4885789;29;45721;-66
2022/09/19 04:01:19;;;;;;;;;2.25;2.00;;;;;15.66;54.04;101754.03;4885843;29;45402;-66
2022/09/19 04:03:44;;;;;;;;;1.25;1.25;;;;;15.66;54.30;101756.72;4886070;29;46156;-66
2022/09/19 04:06:10;;;;;;;;;3.00;3.00;;;;;15.66;54.28;101762.09;4894665;29;45504;-66
2022/09/19 04:08:36;;;;;;;;;3.00;2.00;;;;;15.66;54.27;101764.78;4886251;29;45379;-66
2022/09/19 04:11:01;;;;;;;;;1.50;1.50;;;;;15.64;54.37;101769.34;4866452;29;45674;-66
2022/09/19 04:13:28;;;;;;;;;2.25;2.25;;;;;15.64;54.28;101774.75;4862752;29;46197;-66
2022/09/19 04:15:54;;;;;;;;;2.00;2.00;;;;;15.60;54.49;101765.88;4885806;29;45510;-66
2022/09/19 04:18:20;;;;;;;;;2.00;2.00;;;;;15.61;54.43;101769.47;4886147;29;45253;-66
2022/09/19 04:20:46;;;;;;;;;2.75;2.00;;;;;15.54;54.90;101756.22;4868642;29;45559;-66
2022/09/19 04:23:16;;;;;;;;;3.75;2.25;;;;;15.55;54.36;101760.69;4887343;29;45975;-66
2022/09/19 04:25:42;;;;;;;;;3.00;2.00;;;;;15.53;54.90;101765.22;4884546;29;45553;-66
2022/09/19 04:28:11;;;;;;;;;3.00;3.00;;;;;15.57;54.68;101768.72;4885657;29;45336;-66
2022/09/19 04:30:38;;;;;;;;;4.25;3.00;;;;;15.53;54.99;101765.22;4885466;29;45336;-66
2022/09/19 04:33:05;;;;;;;;;3.25;3.25;;;;;15.55;54.71;101767.84;4885635;29;45478;-66
2022/09/19 04:35:35;;;;;;;;;2.00;2.00;;;;;15.52;54.70;101768.88;4883952;29;45621;-66
2022/09/19 04:38:06;;;;;;;;;2.50;2.00;;;;;15.52;54.64;101771.56;4885649;29;45496;-66
2022/09/19 04:40:39;;;;;;;;;3.00;3.00;;;;;15.50;54.87;101773.44;4868520;29;45460;-66
2022/09/19 04:43:06;;;;;;;;;2.75;2.75;;;;;15.51;54.91;101768.91;4885474;29;46313;-66
2022/09/19 04:45:31;;;;;;;;;3.00;3.00;;;;;15.44;54.64;101762.88;4884140;29;45585;-66
2022/09/19 04:47:58;;;;;;;;;3.00;3.00;;;;;15.48;54.92;101774.41;4885576;29;45293;-66
2022/09/19 04:50:24;;;;;;;;;2.00;2.00;;;;;15.48;54.95;101787.88;4894474;29;45342;-66
2022/09/19 04:52:52;;;;;;;;;3.50;2.00;;;;;15.46;55.00;101785.22;4885083;29;46034;-66
2022/09/19 04:55:17;;;;;;;;;2.50;2.50;;;;;15.43;54.82;101773.69;4885221;29;45596;-66
2022/09/19 04:57:44;;;;;;;;;2.25;2.25;;;;;15.43;55.15;101784.47;4883849;29;45752;-66
2022/09/19 05:00:10;;;;;;;;;4.00;2.50;;;;;15.42;55.29;101788.97;4885309;29;45575;-66
2022/09/19 05:02:36;;;;;;;;;4.75;3.00;;;;;15.41;55.13;101786.34;4885037;29;45372;-66
2022/09/19 05:05:04;;;;;;;;;3.25;3.00;;;;;15.40;55.08;101782.75;4889445;29;45353;-66
2022/09/19 05:07:33;;;;;;;;;3.75;3.50;;;;;15.37;55.21;101785.56;4888915;28;45471;-66
2022/09/19 05:10:00;;;;;;;;;3.75;3.00;;;;;15.36;55.27;101783.81;4885051;29;45557;-66
2022/09/19 05:12:25;;;;;;;;;5.00;3.75;;;;;15.34;55.07;101780.31;4876280;29;46362;-66
2022/09/19 05:14:51;;;;;;;;;5.00;4.75;;;;;15.34;55.35;101777.63;4884988;29;45372;-66
2022/09/19 05:17:17;;;;;;;;;5.00;5.00;;;;;15.34;55.24;101774.91;4885032;29;45405;-66
2022/09/19 05:19:44;;;;;;;;;4.75;4.75;;;;;15.28;55.43;101780.50;4885046;29;45567;-66
2022/09/19 05:22:10;;;;;;;;;7.00;6.00;;;;;15.30;55.47;101792.09;4886182;29;46457;-66
2022/09/19 05:24:37;;;;;;;;;6.00;5.75;;;;;15.26;55.48;101785.94;4884814;29;45349;-66
2022/09/19 05:27:03;;;;;;;;;6.25;5.25;;;;;15.28;55.33;101792.13;4882500;29;45555;-66
2022/09/19 05:29:28;;;;;;;;;5.75;5.50;;;;;15.29;55.58;101793.03;4883500;29;45573;-66
2022/09/19 05:32:01;;;;;;;;;7.75;5.25;;;;;15.24;55.54;101784.25;4884244;29;55227;-66
2022/09/19 05:34:27;;;;;;;;;7.50;6.25;;;;;15.29;55.60;101793.91;4884633;29;45481;-66
2022/09/19 05:36:52;;;;;;;;;6.00;5.50;;;;;15.28;55.51;101800.22;4884448;29;45841;-66
2022/09/19 05:39:18;;;;;;;;;6.00;5.25;;;;;15.25;55.71;101799.44;4884085;29;45320;-66
2022/09/19 05:41:43;;;;;;;;;6.00;6.00;;;;;15.27;55.60;101809.22;4884484;29;45370;-66
2022/09/19 05:44:09;;;;;;;;;5.75;4.75;;;;;15.27;55.84;101806.53;4884627;29;45362;-66
2022/09/19 05:46:34;;;;;;;;;7.00;7.00;;;;;15.21;55.72;101796.00;4883990;29;52334;-66
2022/09/19 05:48:59;;;;;;;;;7.25;6.50;;;;;15.29;55.92;101811.88;4890415;29;47912;-66
2022/09/19 05:51:25;;;;;;;;;7.50;7.25;;;;;15.25;55.73;101803.03;4887486;29;45415;-66
2022/09/19 05:53:53;;;;;;;;;5.25;5.25;;;;;15.26;56.11;101803.91;4882852;29;48972;-66
2022/09/19 05:56:19;;;;;;;;;5.25;5.25;;;;;15.22;55.85;101805.81;4883269;29;45589;-66
2022/09/19 05:58:44;;;;;;;;;3.00;3.00;;;;;15.25;55.85;101810.19;4881171;29;45414;-66
2022/09/19 06:01:12;;;;;;;;;8.00;5.75;;;;;15.19;56.11;101809.47;4883450;29;46139;-65
2022/09/19 06:03:38;;;;;;;;;5.00;5.00;;;;;15.25;56.05;101812.88;4882723;29;45452;-66
2022/09/19 06:06:13;;;;;;;;;6.00;4.75;;;;;15.13;56.12;101801.63;4894830;29;45412;-67
2022/09/19 06:08:40;;;;;;;;;3.75;3.75;;;;;15.15;56.38;101804.25;4898064;28;45360;-68
2022/09/19 06:11:07;;;;;;;;;4.75;4.50;;;;;15.24;56.15;101816.53;4900498;28;47828;-67
2022/09/19 06:16:20;;;;;;;;;5.50;5.50;;;;;15.24;56.42;101829.97;4897268;28;45564;-66
2022/09/19 06:18:46;;;;;;;;;5.25;5.25;;;;;15.25;56.21;101829.94;4900003;29;45824;-67
2022/09/19 06:21:12;;;;;;;;;3.00;3.00;;;;;15.25;56.30;101829.94;4896701;29;46673;-66
2022/09/19 06:23:38;;;;;;;;;6.50;6.50;;;;;15.20;56.27;101829.19;4897984;29;45408;-66
2022/09/19 06:26:03;;;;;;;;;5.25;4.75;;;;;15.24;56.45;101832.66;4899651;28;46080;-66
2022/09/19 06:28:29;;;;;;;;;5.25;5.25;;;;;15.26;56.39;101838.88;4884982;29;45451;-66
2022/09/19 06:30:54;;;;;;;;;4.00;4.00;;;;;15.24;56.55;101841.59;4883574;28;45659;-66
2022/09/19 06:33:19;;;;;;;;;5.75;5.00;;;;;15.26;56.47;101846.94;4898422;28;45532;-66
2022/09/19 06:35:45;;;;;;;;;8.25;5.00;;;;;15.25;56.39;101845.16;4896023;29;45426;-67
2022/09/19 06:38:11;;;;;;;;;5.00;5.00;;;;;15.18;56.77;101840.03;4900621;28;45558;-67
2022/09/19 06:40:38;;;;;;;;;6.75;6.00;;;;;15.24;56.64;101854.19;4901966;29;45506;-67
2022/09/19 06:43:05;;;;;;;;;7.00;5.75;;;;;15.17;56.69;101837.38;4884868;29;45392;-67
2022/09/19 06:45:34;;;;;;;;;5.75;5.75;;;;;15.13;56.82;101838.41;4900730;29;45433;-67
2022/09/19 06:48:00;;;;;;;;;5.00;5.00;;;;;15.24;57.13;101857.75;4884526;29;45827;-67
2022/09/19 06:50:27;;;;;;;;;6.00;5.75;;;;;15.23;56.95;101857.78;4900009;29;46551;-67
2022/09/19 06:52:53;;;;;;;;;4.00;4.00;;;;;15.25;56.71;101866.69;4900695;29;45309;-67
2022/09/19 06:55:18;;;;;;;;;5.00;5.00;;;;;15.22;56.79;101864.09;4898071;29;45358;-67
2022/09/19 06:57:52;;;;;;;;;6.50;6.50;;;;;15.24;57.14;101862.25;4878443;29;45502;-66
2022/09/19 07:00:17;;;;;;;;;6.25;6.25;;;;;15.23;56.81;101864.03;4896074;28;45583;-65
2022/09/19 07:02:42;;;;;;;;;5.75;5.75;;;;;15.23;56.81;101871.25;4883809;29;45365;-65
2022/09/19 07:05:09;;;;;;;;;5.25;5.00;;;;;15.24;57.05;101878.41;4900951;29;48353;-65
2022/09/19 07:07:34;;;;;;;;;5.25;5.25;;;;;15.21;57.25;101867.72;4899823;29;45694;-65
2022/09/19 07:09:59;;;;;;;;;7.00;7.00;;;;;15.25;57.04;101877.44;4900608;29;46032;-65
2022/09/19 07:12:25;;;;;;;;;9.50;7.25;;;;;15.22;57.12;101877.53;4885534;28;45439;-65
2022/09/19 07:14:50;;;;;;;;;5.50;5.50;;;;;15.24;57.38;101883.78;4901436;28;45400;-65
2022/09/19 07:17:16;;;;;;;;;6.50;6.00;;;;;15.25;57.34;101893.59;4894575;28;45804;-65
2022/09/19 07:19:41;;;;;;;;;7.75;7.75;;;;;15.23;57.29;101888.25;4896609;29;45816;-65
2022/09/19 07:22:06;;;;;;;;;6.75;6.00;;;;;15.17;57.34;101875.91;4900008;29;45724;-66
2022/09/19 07:24:32;;;;;;;;;7.00;6.00;;;;;15.21;57.00;101887.44;4900431;29;45461;-69
2022/09/19 07:26:57;;;;;;;;;7.25;6.00;;;;;15.18;57.42;101890.22;4898314;29;45763;-68
2022/09/19 07:29:22;;;;;;;;;7.75;6.50;;;;;15.20;57.18;101885.66;4898198;29;45872;-67
2022/09/19 07:31:48;;;;;;;;;8.00;7.00;;;;;15.21;57.44;101882.06;4899294;29;45306;-67
2022/09/19 07:34:13;;;;;;;;;7.00;6.00;;;;;15.24;57.27;101881.09;4882171;29;45483;-67
2022/09/19 07:36:39;;;;;;;;;7.00;6.75;;;;;15.36;57.39;101903.03;4900140;29;45539;-67
2022/09/19 07:39:04;;;;;;;;;7.00;7.00;;;;;15.38;57.34;101901.22;4897518;28;58524;-67
2022/09/19 07:41:29;;;;;;;;;8.50;8.50;;;;;15.33;57.50;101888.81;4900093;29;45643;-68
2022/09/19 07:43:55;;;;;;;;;7.50;7.50;;;;;15.44;57.48;101908.19;4884020;29;45405;-68
2022/09/19 07:46:20;;;;;;;;;6.00;4.00;;;;;15.48;57.11;101911.66;4900520;28;45519;-67
2022/09/19 07:48:48;;;;;;;;;6.25;6.25;;;;;15.50;57.34;101909.78;4900967;29;46191;-67
2022/09/19 07:51:14;;;;;;;;;6.00;6.00;;;;;15.51;57.61;101912.41;4899636;29;45739;-67
2022/09/19 07:53:39;;;;;;;;;7.50;6.50;;;;;15.52;57.54;101914.19;4898805;29;45325;-67
2022/09/19 07:56:05;;;;;;;;;6.00;6.00;;;;;15.54;57.21;101912.31;4894429;29;45307;-67
2022/09/19 07:58:30;;;;;;;;;5.75;5.75;;;;;15.62;56.93;101917.44;4899388;29;45985;-67
2022/09/19 08:00:59;;;;;;;;;3.75;3.00;;;;;15.66;57.12;101913.69;4898936;29;45469;-67
2022/09/19 08:03:24;;;;;;;;;4.00;4.00;;;;;15.66;56.73;101915.50;4901237;29;45711;-67
2022/09/19 08:05:51;;;;;;;;;7.00;5.00;;;;;15.73;57.15;101917.06;4899159;29;46094;-67
2022/09/19 08:08:20;;;;;;;;;6.50;4.25;;;;;15.80;57.01;101925.81;4903864;29;45398;-67
2022/09/19 08:10:45;;;;;;;;;7.25;5.50;;;;;15.81;57.16;101928.47;4886974;29;45559;-68
2022/09/19 08:13:13;;;;;;;;;5.00;5.00;;;;;15.84;56.48;101933.75;4900097;29;45724;-70
2022/09/19 08:15:39;;;;;;;;;5.25;5.25;;;;;15.80;56.33;101924.00;4897610;28;45499;-73
2022/09/19 08:18:13;;;;;;;;;7.00;5.50;;;;;15.84;56.41;101925.66;4902436;29;47054;-71
2022/09/19 08:20:39;;;;;;;;;4.50;4.00;;;;;15.82;56.46;101927.53;4902847;29;45518;-72
2022/09/19 08:23:11;;;;;;;;;4.00;3.00;;;;;15.91;56.47;101927.19;4902830;29;45441;-75
2022/09/19 08:25:38;;;;;;;;;2.00;2.00;;;;;15.91;56.50;101918.25;4885961;28;45844;-74
2022/09/19 08:28:04;;;;;;;;;4.00;3.00;;;;;15.97;56.72;101926.13;4900617;29;46250;-70
2022/09/19 08:30:31;;;;;;;;;4.25;3.25;;;;;16.06;56.67;101932.97;4905107;28;45600;-71
2022/09/19 08:32:56;;;;;;;;;4.00;3.75;;;;;16.05;56.05;101932.06;4901595;29;45470;-71
2022/09/19 08:35:23;;;;;;;;;6.00;3.00;;;;;16.10;56.25;101919.34;4902900;29;45482;-71
2022/09/19 08:38:00;;;;;;;;;3.75;3.00;;;;;16.22;55.84;101942.25;4902888;28;45554;-71
2022/09/19 08:40:32;;;;;;;;;3.25;3.00;;;;;16.27;55.39;101942.06;4887087;29;45801;-71
2022/09/19 08:43:07;;;;;;;;;2.50;2.00;;;;;16.27;54.65;101945.66;4901480;29;45321;-71
2022/09/19 08:46:10;;;;;;;;;2.75;2.00;;;;;16.26;54.61;101941.19;4903151;29;45442;-70
2022/09/19 08:48:57;;;;;;;;;2.00;2.00;;;;;16.23;54.73;101932.34;4882861;28;48229;-71
2022/09/19 08:51:38;;;;;;;;;3.75;3.50;;;;;16.35;54.78;101945.34;4883339;29;45781;-70
2022/09/19 08:54:19;;;;;;;;;3.00;2.00;;;;;16.39;54.31;101948.81;4900828;29;45456;-69
2022/09/19 08:56:44;;;;;;;;;3.00;1.75;;;;;16.42;53.60;101954.09;4902423;29;45355;-73
2022/09/19 08:59:16;;;;;;;;;2.75;1.00;;;;;16.41;54.01;101952.34;4903658;29;46633;-73
2022/09/19 09:01:42;;;;;;;;;2.50;1.00;;;;;16.28;53.85;101923.16;4901160;29;45643;-72
2022/09/19 09:04:15;;;;;;;;;1.25;1.00;;;;;16.37;53.48;101945.28;4903261;29;45398;-73
2022/09/19 09:07:08;;;;;;;;;2.25;0.00;;;;;16.44;53.11;101958.50;4902552;28;45448;-73
2022/09/19 09:09:48;;;;;;;;;1.00;1.00;;;;;16.44;53.00;101957.63;4899284;29;47266;-73
2022/09/19 09:12:32;;;;;;;;;2.75;2.00;;;;;16.44;52.91;101960.31;4899421;28;45329;-72
2022/09/19 09:15:14;;;;;;;;;2.00;2.00;;;;;16.43;52.55;101963.94;4909571;28;45344;-73
2022/09/19 09:17:49;;;;;;;;;1.50;1.50;;;;;16.42;52.61;101959.47;4895709;28;45469;-73
2022/09/19 09:20:24;;;;;;;;;1.00;1.00;;;;;16.45;52.77;101949.44;4885479;29;48330;-73
2022/09/19 09:23:06;;;;;;;;;1.00;1.00;;;;;16.47;53.02;101944.91;4886086;29;45758;-73
2022/09/19 09:25:38;;;;;;;;;3.00;1.00;;;;;16.55;52.75;101941.91;4884403;29;45584;-72
2022/09/19 09:28:06;;;;;;;;;1.00;1.00;;;;;16.51;52.45;101925.94;4905214;28;45570;-72
2022/09/19 09:30:38;;;;;;;;;2.00;2.00;;;;;16.68;52.33;101951.28;4885063;29;47466;-72
2022/09/19 09:33:27;;;;;;;;;1.75;1.00;;;;;16.80;52.18;101959.81;4903366;29;45321;-72
2022/09/19 09:36:01;;;;;;;;;1.00;0.00;;;;;16.78;51.41;101959.88;4884839;28;45609;-71
2022/09/19 09:38:34;;;;;;;;;0.00;0.00;;;;;16.74;50.86;101954.66;4899880;29;45383;-72
2022/09/19 09:44:06;;;;;;;;;0.00;0.00;;;;;16.83;51.51;101957.00;4903065;29;45567;-71
2022/09/19 09:47:04;;;;;;;;;0.50;0.00;;;;;16.87;50.44;101955.97;4902419;29;45337;-71
2022/09/19 09:49:30;;;;;;;;;0.00;0.00;;;;;16.95;50.93;101956.56;4893263;29;46323;-71
2022/09/19 09:52:22;;;;;;;;;0.00;0.00;;;;;16.99;51.08;101958.19;4901529;29;45369;-71
2022/09/19 09:58:15;;;;;;;;;1.00;0.00;;;;;17.07;50.23;101949.78;4901669;29;45370;-71
2022/09/19 10:03:52;;;;;;;;;0.00;0.00;;;;;17.17;49.93;101953.88;4899818;29;45695;-71
2022/09/19 10:06:25;;;;;;;;;1.00;1.00;;;;;17.22;49.82;101953.69;4897765;28;45593;-71
2022/09/19 10:09:02;;;;;;;;;0.50;0.00;;;;;17.27;49.92;101951.66;4903245;28;45474;-71
2022/09/19 10:11:56;;;;;;;;;0.50;0.00;;;;;17.29;49.88;101947.09;4887082;28;45573;-81
2022/09/19 10:14:28;;;;;;;;;0.25;0.25;;;;;17.17;49.52;101926.00;4882457;29;46525;-83
2022/09/19 10:17:00;;;;;;;;;0.00;0.00;;;;;17.39;49.63;101942.19;4902819;29;45710;-83
2022/09/19 10:19:33;;;;;;;;;1.00;1.00;;;;;17.44;48.98;101942.00;4902711;29;45395;-84
2022/09/19 10:21:59;;;;;;;;;0.25;0.25;;;;;17.44;48.62;101933.91;4903414;29;45458;-81
2022/09/19 10:24:47;;;;;;;;;0.00;0.00;;;;;17.50;47.56;101939.03;4903393;29;45588;-71
2022/09/19 10:27:15;;;;;;;;;0.50;0.50;;;;;17.41;47.99;101919.59;4900258;29;45672;-72
2022/09/19 10:29:50;;;;;;;;;2.00;0.75;;;;;17.44;47.43;101925.78;4885079;29;45600;-72
2022/09/19 10:32:19;;;;;;;;;2.25;1.00;;;;;17.46;47.17;101921.22;4885255;29;45624;-72
2022/09/19 10:34:45;;;;;;;;;1.00;1.00;;;;;17.40;47.31;101901.63;4900902;29;48454;-77
2022/09/19 10:37:14;;;;;;;;;0.00;0.00;;;;;17.58;47.18;101936.91;4901230;29;45438;-71
2022/09/19 10:39:44;;;;;;;;;0.00;0.00;;;;;17.57;46.50;101916.22;4902202;29;45440;-72
2022/09/19 10:42:29;;;;;;;;;1.25;1.00;;;;;17.68;46.51;101937.38;4899166;29;45602;-72
2022/09/19 10:44:59;;;;;;;;;1.75;0.00;;;;;17.64;46.15;101935.75;4901547;29;46109;-72
2022/09/19 10:47:28;;;;;;;;;0.00;0.00;;;;;17.66;46.45;101931.16;4899708;29;45571;-72
2022/09/19 10:50:00;;;;;;;;;0.50;0.50;;;;;17.71;45.98;101940.81;4893405;28;46218;-72
2022/09/19 10:52:30;;;;;;;;;0.00;0.00;;;;;17.62;46.33;101922.31;4897188;29;45649;-72
2022/09/19 10:54:59;;;;;;;;;0.50;0.50;;;;;17.72;45.89;101937.16;4901464;28;45550;-72
2022/09/19 10:57:45;;;;;;;;;0.00;0.00;;;;;17.78;45.70;101934.19;4893459;29;45280;-72
2022/09/19 11:00:30;;;;;;;;;0.25;0.25;;;;;17.74;45.08;101929.00;4890009;29;46136;-73
2022/09/19 11:02:59;;;;;;;;;0.50;0.00;;;;;17.77;45.12;101923.47;4895086;28;45602;-73
2022/09/19 11:05:29;;;;;;;;;0.50;0.00;;;;;17.84;45.12;101926.78;4897139;29;46719;-73
2022/09/19 11:07:55;;;;;;;;;0.00;0.00;;;;;17.78;45.40;101911.72;4898503;29;45659;-72
2022/09/19 11:10:39;;;;;;;;;0.50;0.50;;;;;17.85;44.67;101917.75;4880247;29;45587;-74
2022/09/19 11:13:16;;;;;;;;;1.50;0.00;;;;;17.85;44.59;101917.75;4874351;29;46189;-73
2022/09/19 11:16:27;;;;;;;;;0.00;0.00;;;;;17.89;43.98;101931.09;4895344;29;47153;-71
2022/09/19 11:19:09;;;;;;;;;0.00;0.00;;;;;17.87;44.73;101924.84;4889671;28;45654;-72
2022/09/19 11:21:50;;;;;;;;;0.50;0.00;;;;;17.77;45.08;101905.47;4896587;28;45903;-72
2022/09/19 11:24:39;;;;;;;;;1.25;0.00;;;;;17.94;44.16;101920.03;4895651;28;45736;-71
2022/09/19 11:27:19;;;;;;;;;0.00;0.00;;;;;17.87;44.44;101907.78;4908297;28;45752;-71
2022/09/19 11:30:11;;;;;;;;;2.75;1.00;;;;;18.01;44.18;101920.66;4900238;28;45755;-71
2022/09/19 11:32:56;;;;;;;;;0.00;0.00;;;;;18.05;43.88;101933.09;4898701;29;46506;-71
2022/09/19 11:35:27;;;;;;;;;0.00;0.00;;;;;18.09;43.81;101918.47;4888802;29;45878;-71
2022/09/19 11:38:37;;;;;;;;;0.00;0.00;;;;;18.09;43.39;101921.19;4898304;28;47577;-70
2022/09/19 11:41:19;;;;;;;;;1.50;0.00;;;;;18.08;43.60;101919.44;4812741;29;45805;-71
2022/09/19 11:44:13;;;;;;;;;0.25;0.25;;;;;18.15;43.61;101929.88;4901193;29;45414;-70
2022/09/19 11:47:02;;;;;;;;;0.00;0.00;;;;;18.14;43.46;101928.16;4895737;28;45787;-74
2022/09/19 11:49:27;;;;;;;;;0.00;0.00;;;;;18.17;43.15;101918.16;4880570;29;45611;-73
2022/09/19 11:52:17;;;;;;;;;0.00;0.00;;;;;18.24;43.71;101920.50;4901094;29;45754;-73
2022/09/19 11:55:10;;;;;;;;;0.50;0.50;;;;;18.32;43.22;101918.31;4897496;29;45752;-74
2022/09/19 11:57:44;;;;;;;;;0.00;0.00;;;;;18.34;42.72;101915.53;4900812;29;45651;-74
2022/09/19 12:00:13;;;;;;;;;1.75;0.75;;;;;18.31;42.16;101902.19;4900719;29;45529;-74